createdAt,value
2023-03-28T00:01:33.189Z,1511
2023-03-28T00:06:51.498Z,1493
2023-03-28T00:12:09.429Z,1486
2023-03-28T00:17:27.942Z,1481
2023-03-28T00:22:46.313Z,1485
2023-03-28T00:28:04.625Z,1486
2023-03-28T00:33:22.906Z,1490
2023-03-28T00:38:41.218Z,1507
2023-03-28T00:43:59.331Z,1521
2023-03-28T00:49:20.095Z,1508
2023-03-28T00:54:38.597Z,1499
2023-03-28T00:59:57.089Z,1525
2023-03-28T01:05:14.990Z,1529
2023-03-28T01:10:33.277Z,1544
2023-03-28T01:15:51.331Z,1528
2023-03-28T01:21:09.656Z,1517
2023-03-28T01:26:27.965Z,1505
2023-03-28T01:31:46.273Z,1517
2023-03-28T01:37:04.568Z,1504
2023-03-28T01:42:23.086Z,1485
2023-03-28T01:47:41.584Z,1458
2023-03-28T01:52:59.752Z,1437
2023-03-28T01:58:18.265Z,1421
2023-03-28T02:03:36.787Z,1395
2023-03-28T02:08:55.229Z,1394
2023-03-28T02:14:13.309Z,1399
2023-03-28T02:19:31.247Z,1383
2023-03-28T02:24:49.185Z,1375
2023-03-28T02:30:07.669Z,1375
2023-03-28T02:35:26.051Z,1373
2023-03-28T02:40:44.378Z,1365
2023-03-28T02:46:03.141Z,1326
2023-03-28T02:51:21.931Z,1325
2023-03-28T02:56:40.428Z,1312
2023-03-28T03:01:58.781Z,1310
2023-03-28T03:07:17.175Z,1310
2023-03-28T03:12:35.665Z,1304
2023-03-28T03:17:53.940Z,1297
2023-03-28T03:23:12.231Z,1292
2023-03-28T03:28:30.432Z,1286
2023-03-28T03:33:48.714Z,1270
2023-03-28T03:39:07.191Z,1252
2023-03-28T03:44:25.313Z,1239
2023-03-28T03:49:43.428Z,1218
2023-03-28T03:55:01.596Z,1199
2023-03-28T04:00:19.957Z,1173
2023-03-28T04:05:38.481Z,1149
2023-03-28T04:10:56.395Z,1131
2023-03-28T04:16:14.930Z,1111
2023-03-28T04:21:33.352Z,1105
2023-03-28T04:26:51.253Z,1093
2023-03-28T04:32:09.360Z,1107
2023-03-28T04:37:27.620Z,1095
2023-03-28T04:42:45.909Z,971
2023-03-28T04:48:04.393Z,956
2023-03-28T04:53:22.527Z,936
2023-03-28T04:58:40.685Z,921
2023-03-28T05:03:58.770Z,914
2023-03-28T05:09:16.839Z,898
2023-03-28T05:14:34.982Z,882
2023-03-28T05:19:54.168Z,872
2023-03-28T05:25:12.635Z,860
2023-03-28T05:30:30.948Z,847
2023-03-28T05:35:49.055Z,835
2023-03-28T05:41:07.366Z,831
2023-03-28T05:46:25.762Z,818
2023-03-28T05:51:44.257Z,806
2023-03-28T05:57:02.461Z,801
2023-03-28T06:02:20.790Z,787
2023-03-28T06:07:42.425Z,773
2023-03-28T06:13:01.471Z,763
2023-03-28T06:18:19.381Z,757
2023-03-28T06:23:37.334Z,746
2023-03-28T06:28:55.639Z,734
2023-03-28T06:34:13.964Z,733
2023-03-28T06:39:32.324Z,722
2023-03-28T06:44:50.856Z,711
2023-03-28T06:50:09.029Z,712
2023-03-28T06:55:27.350Z,712
2023-03-28T07:00:45.441Z,712
2023-03-28T07:06:03.719Z,710
2023-03-28T07:11:22.108Z,711
2023-03-28T07:16:40.014Z,703
2023-03-28T07:21:58.210Z,703
2023-03-28T07:27:17.088Z,700
2023-03-28T07:32:43.027Z,695
2023-03-28T07:38:30.558Z,693
2023-03-28T07:43:48.417Z,689
2023-03-28T07:49:06.557Z,694
2023-03-28T07:54:24.667Z,691
2023-03-28T07:59:42.964Z,686
2023-03-28T08:05:01.491Z,685
2023-03-28T08:10:19.884Z,685
2023-03-28T08:15:38.036Z,694
2023-03-28T08:20:56.350Z,695
2023-03-28T08:26:14.803Z,689
2023-03-28T08:31:33.080Z,686
2023-03-28T08:36:54.440Z,679
2023-03-28T08:42:13.192Z,674
2023-03-28T08:47:31.487Z,666
2023-03-28T08:52:49.879Z,666
2023-03-28T08:58:08.537Z,664
2023-03-28T09:03:26.715Z,658
2023-03-28T09:08:45.196Z,656
2023-03-28T09:14:03.457Z,645
2023-03-28T09:19:21.632Z,637
2023-03-28T09:24:42.791Z,628
2023-03-28T09:30:00.924Z,622
2023-03-28T09:35:19.272Z,613
2023-03-28T09:40:37.525Z,609
2023-03-28T09:45:55.641Z,605
2023-03-28T09:51:13.847Z,597
2023-03-28T09:56:31.935Z,595
2023-03-28T10:01:50.097Z,587
2023-03-28T10:07:08.304Z,581
2023-03-28T10:12:26.430Z,574
2023-03-28T10:17:44.816Z,573
2023-03-28T10:23:04.418Z,572
2023-03-28T10:28:22.850Z,568
2023-03-28T10:33:40.993Z,560
2023-03-28T10:38:59.136Z,554
2023-03-28T10:44:17.228Z,554
2023-03-28T10:49:35.548Z,548
2023-03-28T10:54:54.304Z,545
2023-03-28T11:00:12.506Z,539
2023-03-28T11:05:30.851Z,539
2023-03-28T11:10:48.983Z,532
2023-03-28T11:16:07.543Z,526
2023-03-28T11:21:25.675Z,524
2023-03-28T11:26:44.298Z,519
2023-03-28T11:32:02.490Z,515
2023-03-28T11:37:20.771Z,515
2023-03-28T11:42:38.684Z,512
2023-03-28T11:47:56.790Z,508
2023-03-28T11:53:15.040Z,510
2023-03-28T11:58:33.427Z,515
2023-03-28T12:03:52.177Z,521
2023-03-28T12:09:10.700Z,525
2023-03-28T12:14:29.128Z,524
2023-03-28T12:19:47.435Z,524
2023-03-28T12:25:05.799Z,531
2023-03-28T12:30:24.093Z,534
2023-03-28T12:35:42.496Z,535
2023-03-28T12:41:01.040Z,537
2023-03-28T12:46:20.761Z,544
2023-03-28T12:51:38.964Z,544
2023-03-28T12:56:57.370Z,545
2023-03-28T13:02:15.654Z,544
2023-03-28T13:07:33.547Z,545
2023-03-28T13:12:52.092Z,548
2023-03-28T13:18:10.256Z,548
2023-03-28T13:23:28.413Z,548
2023-03-28T13:28:46.881Z,545
2023-03-28T13:34:05.273Z,548
2023-03-28T13:39:23.559Z,549
2023-03-28T13:44:41.863Z,654
2023-03-28T13:50:00.362Z,605
2023-03-28T13:55:18.747Z,585
2023-03-28T14:00:36.862Z,585
2023-03-28T14:05:55.391Z,579
2023-03-28T14:11:16.637Z,575
2023-03-28T14:16:34.998Z,573
2023-03-28T14:21:53.038Z,576
2023-03-28T14:27:13.835Z,571
2023-03-28T14:32:31.995Z,571
2023-03-28T14:37:50.414Z,570
2023-03-28T14:43:08.717Z,574
2023-03-28T14:48:26.826Z,573
2023-03-28T14:53:44.903Z,580
2023-03-28T14:59:03.383Z,579
2023-03-28T15:04:21.927Z,580
2023-03-28T15:09:40.494Z,583
2023-03-28T15:14:59.023Z,594
2023-03-28T15:20:17.342Z,637
2023-03-28T15:25:35.723Z,646
2023-03-28T15:30:54.044Z,645
2023-03-28T15:36:12.370Z,655
2023-03-28T15:41:30.601Z,665
2023-03-28T15:46:48.972Z,670
2023-03-28T15:52:07.010Z,677
2023-03-28T15:57:25.383Z,685
2023-03-28T16:02:43.927Z,692
2023-03-28T16:08:03.391Z,697
2023-03-28T16:13:23.644Z,707
2023-03-28T16:18:42.034Z,707
2023-03-28T16:24:09.037Z,710
2023-03-28T16:29:27.436Z,709
2023-03-28T16:34:45.895Z,707
2023-03-28T16:40:04.311Z,706
2023-03-28T16:45:22.543Z,712
2023-03-28T16:50:40.883Z,728
2023-03-28T16:55:59.524Z,734
2023-03-28T17:01:18.321Z,742
2023-03-28T17:06:36.850Z,760
2023-03-28T17:11:55.023Z,771
2023-03-28T17:17:13.326Z,771
2023-03-28T17:22:31.524Z,766
2023-03-28T17:27:52.448Z,767
2023-03-28T17:33:11.071Z,753
2023-03-28T17:38:29.574Z,745
2023-03-28T17:43:48.084Z,734
2023-03-28T17:49:06.647Z,737
2023-03-28T17:54:24.790Z,751
2023-03-28T17:59:43.222Z,726
2023-03-28T18:05:01.358Z,766
2023-03-28T18:10:19.981Z,791
2023-03-28T18:15:38.092Z,799
2023-03-28T18:20:56.249Z,797
2023-03-28T18:26:14.774Z,803
2023-03-28T18:31:36.406Z,806
2023-03-28T18:36:54.553Z,806
2023-03-28T18:42:15.796Z,812
2023-03-28T18:47:34.362Z,814
2023-03-28T18:52:56.536Z,810
2023-03-28T18:58:14.680Z,810
2023-03-28T19:03:34.127Z,810
2023-03-28T19:08:53.491Z,816
2023-03-28T19:14:11.569Z,824
2023-03-28T19:19:30.063Z,825
2023-03-28T19:24:48.561Z,825
2023-03-28T19:30:06.705Z,831
2023-03-28T19:35:24.915Z,833
2023-03-28T19:40:43.269Z,836
2023-03-28T19:46:01.543Z,842
2023-03-28T19:51:20.915Z,845
2023-03-28T19:56:38.881Z,853
2023-03-28T20:01:57.314Z,857
2023-03-28T20:07:15.531Z,913
2023-03-28T20:12:33.604Z,915
2023-03-28T20:17:51.899Z,917
2023-03-28T20:23:09.947Z,957
2023-03-28T20:28:28.258Z,986
2023-03-28T20:33:46.510Z,1003
2023-03-28T20:39:04.867Z,1005
2023-03-28T20:44:23.170Z,1016
2023-03-28T20:49:41.228Z,1042
2023-03-28T20:54:59.532Z,1051
2023-03-28T21:00:17.996Z,1074
2023-03-28T21:05:36.352Z,1073
2023-03-28T21:10:54.664Z,1069
2023-03-28T21:16:12.951Z,1072
2023-03-28T21:21:30.917Z,1073
2023-03-28T21:26:49.200Z,1073
2023-03-28T21:32:07.573Z,1075
2023-03-28T21:37:25.704Z,1077
2023-03-28T21:42:43.870Z,1079
2023-03-28T21:48:02.243Z,1075
2023-03-28T21:53:20.993Z,1069
2023-03-28T21:58:39.556Z,1075
2023-03-28T22:03:58.118Z,1069
2023-03-28T22:09:16.378Z,1079
2023-03-28T22:14:34.509Z,1075
2023-03-28T22:19:52.593Z,1084
2023-03-28T22:25:11.074Z,1088
2023-03-28T22:30:29.175Z,1094
2023-03-28T22:35:47.291Z,1096
2023-03-28T22:41:05.459Z,1097
2023-03-28T22:46:23.680Z,1096
2023-03-28T22:51:41.888Z,1091
2023-03-28T22:57:00.452Z,1091
2023-03-28T23:02:18.805Z,1092
2023-03-28T23:07:37.306Z,1095
2023-03-28T23:12:55.575Z,1096
2023-03-28T23:18:13.873Z,1080
2023-03-28T23:23:31.948Z,1074
2023-03-28T23:28:50.118Z,1076
2023-03-28T23:34:08.634Z,1076
2023-03-28T23:39:26.723Z,1060
2023-03-28T23:44:44.773Z,1050
2023-03-28T23:50:03.316Z,1044
2023-03-28T23:55:21.646Z,1047
